sensor_id;sensor_type;location;lat;lon;timestamp;pressure;altitude;pressure_sealevel;temperature;humidity
43153;BME280;28756;49.064;9.290;2022-10-16T00:01:11;98933.88;;;13.88;100.00
43153;BME280;28756;49.064;9.290;2022-10-16T00:03:41;98941.63;;;13.89;100.00
43153;BME280;28756;49.064;9.290;2022-10-16T00:06:09;98933.66;;;13.91;100.00
43153;BME280;28756;49.064;9.290;2022-10-16T00:08:36;98936.19;;;13.93;100.00
43153;BME280;28756;49.064;9.290;2022-10-16T00:11:12;98936.88;;;13.95;100.00
43153;BME280;28756;49.064;9.290;2022-10-16T00:13:40;98926.63;;;14.04;100.00
43153;BME280;28756;49.064;9.290;2022-10-16T00:16:08;98926.56;;;14.17;100.00
43153;BME280;28756;49.064;9.290;2022-10-16T00:18:35;98910.66;;;14.20;100.00
43153;BME280;28756;49.064;9.290;2022-10-16T00:21:09;98909.38;;;14.26;100.00
43153;BME280;28756;49.064;9.290;2022-10-16T00:23:36;98907.38;;;14.30;100.00
43153;BME280;28756;49.064;9.290;2022-10-16T00:26:07;98908.19;;;14.30;100.00
43153;BME280;28756;49.064;9.290;2022-10-16T00:28:34;98895.13;;;14.30;100.00
43153;BME280;28756;49.064;9.290;2022-10-16T00:31:10;98896.06;;;14.29;100.00
43153;BME280;28756;49.064;9.290;2022-10-16T00:33:38;98894.19;;;14.31;100.00
43153;BME280;28756;49.064;9.290;2022-10-16T00:36:05;98897.72;;;14.30;100.00
43153;BME280;28756;49.064;9.290;2022-10-16T00:38:32;98900.34;;;14.30;100.00
43153;BME280;28756;49.064;9.290;2022-10-16T00:40:58;98901.28;;;14.29;100.00
43153;BME280;28756;49.064;9.290;2022-10-16T00:43:46;98916.03;;;14.30;100.00
43153;BME280;28756;49.064;9.290;2022-10-16T00:46:22;98914.28;;;14.31;100.00
43153;BME280;28756;49.064;9.290;2022-10-16T00:49:15;98919.50;;;14.31;100.00
43153;BME280;28756;49.064;9.290;2022-10-16T00:51:46;98919.28;;;14.34;100.00
43153;BME280;28756;49.064;9.290;2022-10-16T00:54:28;98921.88;;;14.34;100.00
43153;BME280;28756;49.064;9.290;2022-10-16T00:56:59;98920.72;;;14.38;100.00
43153;BME280;28756;49.064;9.290;2022-10-16T00:59:30;98917.06;;;14.41;100.00
43153;BME280;28756;49.064;9.290;2022-10-16T01:01:58;98918.00;;;14.40;100.00
43153;BME280;28756;49.064;9.290;2022-10-16T01:04:25;98921.00;;;14.46;100.00
43153;BME280;28756;49.064;9.290;2022-10-16T01:13:08;98907.59;;;14.51;100.00
43153;BME280;28756;49.064;9.290;2022-10-16T01:15:47;98898.16;;;14.48;100.00
43153;BME280;28756;49.064;9.290;2022-10-16T01:18:46;98909.97;;;14.54;100.00
43153;BME280;28756;49.064;9.290;2022-10-16T01:21:35;98910.22;;;14.62;100.00
43153;BME280;28756;49.064;9.290;2022-10-16T01:27:27;98900.19;;;14.69;100.00
43153;BME280;28756;49.064;9.290;2022-10-16T01:33:00;98883.28;;;14.73;100.00
43153;BME280;28756;49.064;9.290;2022-10-16T01:35:37;98889.59;;;14.71;100.00
43153;BME280;28756;49.064;9.290;2022-10-16T01:38:12;98887.63;;;14.86;100.00
43153;BME280;28756;49.064;9.290;2022-10-16T01:40:46;98896.63;;;14.81;100.00
43153;BME280;28756;49.064;9.290;2022-10-16T01:43:19;98911.84;;;14.76;100.00
43153;BME280;28756;49.064;9.290;2022-10-16T01:45:46;98918.03;;;14.75;100.00
43153;BME280;28756;49.064;9.290;2022-10-16T01:48:17;98907.47;;;14.88;100.00
43153;BME280;28756;49.064;9.290;2022-10-16T01:50:52;98910.78;;;14.79;100.00
43153;BME280;28756;49.064;9.290;2022-10-16T01:53:20;98905.06;;;14.74;100.00
43153;BME280;28756;49.064;9.290;2022-10-16T01:55:48;98913.66;;;14.76;100.00
43153;BME280;28756;49.064;9.290;2022-10-16T01:58:15;98906.75;;;14.75;100.00
43153;BME280;28756;49.064;9.290;2022-10-16T02:00:44;98903.78;;;14.79;100.00
43153;BME280;28756;49.064;9.290;2022-10-16T02:03:14;98905.44;;;14.80;100.00
43153;BME280;28756;49.064;9.290;2022-10-16T02:05:51;98898.44;;;14.81;100.00
43153;BME280;28756;49.064;9.290;2022-10-16T02:08:19;98889.63;;;14.82;100.00
43153;BME280;28756;49.064;9.290;2022-10-16T02:10:45;98882.94;;;14.78;100.00
43153;BME280;28756;49.064;9.290;2022-10-16T02:13:17;98888.31;;;14.76;100.00
43153;BME280;28756;49.064;9.290;2022-10-16T02:15:45;98884.97;;;14.74;100.00
43153;BME280;28756;49.064;9.290;2022-10-16T02:18:11;98893.66;;;14.75;100.00
43153;BME280;28756;49.064;9.290;2022-10-16T02:20:51;98901.72;;;14.72;100.00
43153;BME280;28756;49.064;9.290;2022-10-16T02:23:35;98905.91;;;14.74;100.00
43153;BME280;28756;49.064;9.290;2022-10-16T02:26:06;98908.75;;;14.71;100.00
43153;BME280;28756;49.064;9.290;2022-10-16T02:28:46;98908.84;;;14.69;100.00
43153;BME280;28756;49.064;9.290;2022-10-16T02:31:18;98904.56;;;14.68;100.00
43153;BME280;28756;49.064;9.290;2022-10-16T02:33:47;98902.06;;;14.67;100.00
43153;BME280;28756;49.064;9.290;2022-10-16T02:36:13;98910.00;;;14.65;100.00
43153;BME280;28756;49.064;9.290;2022-10-16T02:38:40;98907.53;;;14.64;100.00
43153;BME280;28756;49.064;9.290;2022-10-16T02:41:07;98909.41;;;14.62;100.00
43153;BME280;28756;49.064;9.290;2022-10-16T02:43:33;98898.09;;;14.61;100.00
43153;BME280;28756;49.064;9.290;2022-10-16T02:45:59;98895.25;;;14.64;100.00
43153;BME280;28756;49.064;9.290;2022-10-16T02:48:25;98909.28;;;14.63;100.00
43153;BME280;28756;49.064;9.290;2022-10-16T02:50:51;98910.34;;;14.61;100.00
43153;BME280;28756;49.064;9.290;2022-10-16T02:53:17;98909.63;;;14.59;100.00
43153;BME280;28756;49.064;9.290;2022-10-16T02:55:42;98921.28;;;14.55;100.00
43153;BME280;28756;49.064;9.290;2022-10-16T02:58:08;98926.72;;;14.51;100.00
43153;BME280;28756;49.064;9.290;2022-10-16T03:00:34;98920.88;;;14.48;100.00
43153;BME280;28756;49.064;9.290;2022-10-16T03:03:00;98922.78;;;14.46;100.00
43153;BME280;28756;49.064;9.290;2022-10-16T03:05:25;98915.53;;;14.49;100.00
43153;BME280;28756;49.064;9.290;2022-10-16T03:07:51;98931.34;;;14.48;100.00
43153;BME280;28756;49.064;9.290;2022-10-16T03:10:18;98938.59;;;14.44;100.00
43153;BME280;28756;49.064;9.290;2022-10-16T03:12:43;98934.41;;;14.42;100.00
43153;BME280;28756;49.064;9.290;2022-10-16T03:15:09;98935.47;;;14.39;100.00
43153;BME280;28756;49.064;9.290;2022-10-16T03:17:35;98931.41;;;14.35;100.00
43153;BME280;28756;49.064;9.290;2022-10-16T03:20:02;98940.31;;;14.32;100.00
43153;BME280;28756;49.064;9.290;2022-10-16T03:22:28;98942.31;;;14.29;100.00
43153;BME280;28756;49.064;9.290;2022-10-16T03:24:54;98934.59;;;14.27;100.00
43153;BME280;28756;49.064;9.290;2022-10-16T03:27:20;98923.19;;;14.28;100.00
43153;BME280;28756;49.064;9.290;2022-10-16T03:29:46;98933.75;;;14.27;100.00
43153;BME280;28756;49.064;9.290;2022-10-16T03:32:11;98934.69;;;14.26;100.00
43153;BME280;28756;49.064;9.290;2022-10-16T03:34:37;98933.25;;;14.21;100.00
43153;BME280;28756;49.064;9.290;2022-10-16T03:37:03;98940.16;;;14.23;100.00
43153;BME280;28756;49.064;9.290;2022-10-16T03:39:29;98942.97;;;14.19;100.00
43153;BME280;28756;49.064;9.290;2022-10-16T03:41:55;98944.16;;;14.15;100.00
43153;BME280;28756;49.064;9.290;2022-10-16T03:44:20;98941.88;;;14.11;100.00
43153;BME280;28756;49.064;9.290;2022-10-16T03:46:47;98960.38;;;14.08;100.00
43153;BME280;28756;49.064;9.290;2022-10-16T03:49:12;98955.38;;;14.04;100.00
43153;BME280;28756;49.064;9.290;2022-10-16T03:51:38;98954.66;;;14.02;100.00
43153;BME280;28756;49.064;9.290;2022-10-16T03:54:04;98954.97;;;13.98;100.00
43153;BME280;28756;49.064;9.290;2022-10-16T03:56:29;98946.63;;;13.93;100.00
43153;BME280;28756;49.064;9.290;2022-10-16T03:58:55;98950.38;;;13.88;100.00
43153;BME280;28756;49.064;9.290;2022-10-16T04:01:21;98951.56;;;13.84;100.00
43153;BME280;28756;49.064;9.290;2022-10-16T04:03:47;98955.22;;;13.82;100.00
43153;BME280;28756;49.064;9.290;2022-10-16T04:06:12;98954.69;;;13.77;100.00
43153;BME280;28756;49.064;9.290;2022-10-16T04:08:38;98953.66;;;13.79;100.00
43153;BME280;28756;49.064;9.290;2022-10-16T04:11:04;98947.59;;;13.79;100.00
43153;BME280;28756;49.064;9.290;2022-10-16T04:13:30;98949.34;;;13.78;100.00
43153;BME280;28756;49.064;9.290;2022-10-16T04:15:56;98955.31;;;13.80;100.00
43153;BME280;28756;49.064;9.290;2022-10-16T04:18:22;98959.28;;;13.86;100.00
43153;BME280;28756;49.064;9.290;2022-10-16T04:20:48;98955.63;;;13.88;100.00
43153;BME280;28756;49.064;9.290;2022-10-16T04:23:13;98958.84;;;13.92;100.00
43153;BME280;28756;49.064;9.290;2022-10-16T04:25:40;98964.19;;;13.90;100.00
43153;BME280;28756;49.064;9.290;2022-10-16T04:28:06;98959.72;;;13.93;100.00
43153;BME280;28756;49.064;9.290;2022-10-16T04:30:32;98955.19;;;13.95;100.00
43153;BME280;28756;49.064;9.290;2022-10-16T04:32:59;98957.78;;;13.95;100.00
43153;BME280;28756;49.064;9.290;2022-10-16T04:35:24;98961.97;;;13.97;100.00
43153;BME280;28756;49.064;9.290;2022-10-16T04:37:51;98966.56;;;13.94;100.00
43153;BME280;28756;49.064;9.290;2022-10-16T04:40:17;98977.88;;;13.94;100.00
43153;BME280;28756;49.064;9.290;2022-10-16T04:42:43;98982.25;;;13.94;100.00
43153;BME280;28756;49.064;9.290;2022-10-16T04:45:09;98984.06;;;13.93;100.00
43153;BME280;28756;49.064;9.290;2022-10-16T04:47:34;98980.69;;;13.91;100.00
43153;BME280;28756;49.064;9.290;2022-10-16T04:50:00;98980.09;;;13.87;100.00
43153;BME280;28756;49.064;9.290;2022-10-16T04:52:28;98980.19;;;13.86;100.00
43153;BME280;28756;49.064;9.290;2022-10-16T04:54:54;98988.97;;;13.85;100.00
43153;BME280;28756;49.064;9.290;2022-10-16T04:57:20;98984.81;;;13.82;100.00
43153;BME280;28756;49.064;9.290;2022-10-16T04:59:46;98987.63;;;13.79;100.00
43153;BME280;28756;49.064;9.290;2022-10-16T05:02:12;98996.41;;;13.78;100.00
43153;BME280;28756;49.064;9.290;2022-10-16T05:04:38;99000.91;;;13.76;100.00
43153;BME280;28756;49.064;9.290;2022-10-16T05:07:03;98998.38;;;13.74;100.00
43153;BME280;28756;49.064;9.290;2022-10-16T05:09:29;98998.50;;;13.73;100.00
43153;BME280;28756;49.064;9.290;2022-10-16T05:11:55;99004.66;;;13.72;100.00
43153;BME280;28756;49.064;9.290;2022-10-16T05:14:20;99003.13;;;13.69;100.00
43153;BME280;28756;49.064;9.290;2022-10-16T05:16:46;99005.84;;;13.68;100.00
43153;BME280;28756;49.064;9.290;2022-10-16T05:19:13;99007.72;;;13.66;100.00
43153;BME280;28756;49.064;9.290;2022-10-16T05:21:39;99003.31;;;13.66;100.00
43153;BME280;28756;49.064;9.290;2022-10-16T05:24:05;99016.50;;;13.65;100.00
43153;BME280;28756;49.064;9.290;2022-10-16T05:26:30;99009.69;;;13.62;100.00
43153;BME280;28756;49.064;9.290;2022-10-16T05:28:56;99014.63;;;13.54;100.00
43153;BME280;28756;49.064;9.290;2022-10-16T05:31:22;99016.59;;;13.50;100.00
43153;BME280;28756;49.064;9.290;2022-10-16T05:33:48;99010.75;;;13.47;100.00
43153;BME280;28756;49.064;9.290;2022-10-16T05:36:14;99017.03;;;13.44;100.00
43153;BME280;28756;49.064;9.290;2022-10-16T05:38:39;99017.22;;;13.41;100.00
43153;BME280;28756;49.064;9.290;2022-10-16T05:41:05;99022.56;;;13.39;100.00
43153;BME280;28756;49.064;9.290;2022-10-16T05:43:32;99033.03;;;13.38;100.00
43153;BME280;28756;49.064;9.290;2022-10-16T05:46:04;99031.47;;;13.35;100.00
43153;BME280;28756;49.064;9.290;2022-10-16T05:48:31;99022.09;;;13.33;100.00
43153;BME280;28756;49.064;9.290;2022-10-16T05:51:03;99026.47;;;13.32;100.00
43153;BME280;28756;49.064;9.290;2022-10-16T05:53:31;99019.59;;;13.31;100.00
43153;BME280;28756;49.064;9.290;2022-10-16T05:55:58;99030.16;;;13.30;100.00
43153;BME280;28756;49.064;9.290;2022-10-16T05:58:27;99031.09;;;13.29;100.00
43153;BME280;28756;49.064;9.290;2022-10-16T06:00:56;99033.69;;;13.29;100.00
43153;BME280;28756;49.064;9.290;2022-10-16T06:03:22;99043.28;;;13.28;100.00
43153;BME280;28756;49.064;9.290;2022-10-16T06:05:49;99045.16;;;13.26;100.00
43153;BME280;28756;49.064;9.290;2022-10-16T06:08:15;99045.16;;;13.26;100.00
43153;BME280;28756;49.064;9.290;2022-10-16T06:10:41;99054.88;;;13.24;100.00
43153;BME280;28756;49.064;9.290;2022-10-16T06:13:07;99059.38;;;13.22;100.00
43153;BME280;28756;49.064;9.290;2022-10-16T06:15:32;99062.09;;;13.20;100.00
43153;BME280;28756;49.064;9.290;2022-10-16T06:17:58;99057.91;;;13.18;100.00
43153;BME280;28756;49.064;9.290;2022-10-16T06:20:24;99062.38;;;13.16;100.00
43153;BME280;28756;49.064;9.290;2022-10-16T06:22:50;99050.06;;;13.18;100.00
43153;BME280;28756;49.064;9.290;2022-10-16T06:25:15;99057.91;;;13.18;100.00
43153;BME280;28756;49.064;9.290;2022-10-16T06:27:41;99066.44;;;13.20;100.00
43153;BME280;28756;49.064;9.290;2022-10-16T06:30:07;99065.41;;;13.22;100.00
43153;BME280;28756;49.064;9.290;2022-10-16T06:32:33;99051.34;;;13.25;100.00
43153;BME280;28756;49.064;9.290;2022-10-16T06:34:59;99046.75;;;13.29;100.00
43153;BME280;28756;49.064;9.290;2022-10-16T06:37:25;99050.00;;;13.32;100.00
43153;BME280;28756;49.064;9.290;2022-10-16T06:39:52;99060.13;;;13.37;100.00
43153;BME280;28756;49.064;9.290;2022-10-16T06:42:18;99061.72;;;13.39;100.00
43153;BME280;28756;49.064;9.290;2022-10-16T06:44:44;99058.91;;;13.42;100.00
43153;BME280;28756;49.064;9.290;2022-10-16T06:47:10;99071.75;;;13.46;100.00
43153;BME280;28756;49.064;9.290;2022-10-16T06:49:36;99080.97;;;13.51;100.00
43153;BME280;28756;49.064;9.290;2022-10-16T06:52:02;99085.91;;;13.56;100.00
43153;BME280;28756;49.064;9.290;2022-10-16T06:54:28;99092.56;;;13.60;100.00
43153;BME280;28756;49.064;9.290;2022-10-16T06:56:54;99100.09;;;13.65;100.00
43153;BME280;28756;49.064;9.290;2022-10-16T06:59:21;99098.88;;;13.70;100.00
43153;BME280;28756;49.064;9.290;2022-10-16T07:01:47;99097.00;;;13.72;100.00
43153;BME280;28756;49.064;9.290;2022-10-16T07:04:13;99102.94;;;13.74;100.00
43153;BME280;28756;49.064;9.290;2022-10-16T07:06:39;99104.41;;;13.79;100.00
43153;BME280;28756;49.064;9.290;2022-10-16T07:09:09;99118.84;;;13.84;100.00
43153;BME280;28756;49.064;9.290;2022-10-16T07:11:38;99108.78;;;13.91;100.00
43153;BME280;28756;49.064;9.290;2022-10-16T07:14:05;99113.50;;;13.99;100.00
43153;BME280;28756;49.064;9.290;2022-10-16T07:16:34;99103.25;;;14.09;100.00
43153;BME280;28756;49.064;9.290;2022-10-16T07:19:02;99106.28;;;14.15;100.00
43153;BME280;28756;49.064;9.290;2022-10-16T07:21:33;99092.56;;;14.25;100.00
43153;BME280;28756;49.064;9.290;2022-10-16T07:24:06;99083.97;;;14.35;100.00
43153;BME280;28756;49.064;9.290;2022-10-16T07:26:35;99084.66;;;14.50;100.00
43153;BME280;28756;49.064;9.290;2022-10-16T07:29:02;99082.44;;;14.57;100.00
43153;BME280;28756;49.064;9.290;2022-10-16T07:31:28;99086.50;;;14.61;100.00
43153;BME280;28756;49.064;9.290;2022-10-16T07:33:55;99088.63;;;14.69;100.00
43153;BME280;28756;49.064;9.290;2022-10-16T07:36:21;99081.50;;;14.71;100.00
43153;BME280;28756;49.064;9.290;2022-10-16T07:38:47;99092.25;;;14.79;100.00
43153;BME280;28756;49.064;9.290;2022-10-16T07:41:19;99090.34;;;14.81;100.00
43153;BME280;28756;49.064;9.290;2022-10-16T07:43:52;99078.59;;;14.87;100.00
43153;BME280;28756;49.064;9.290;2022-10-16T07:46:19;99078.59;;;14.87;100.00
43153;BME280;28756;49.064;9.290;2022-10-16T07:48:46;99083.63;;;14.90;100.00
43153;BME280;28756;49.064;9.290;2022-10-16T07:51:16;99084.44;;;14.91;100.00
43153;BME280;28756;49.064;9.290;2022-10-16T07:53:43;99091.16;;;14.95;100.00
43153;BME280;28756;49.064;9.290;2022-10-16T07:56:09;99090.69;;;15.01;100.00
43153;BME280;28756;49.064;9.290;2022-10-16T07:58:36;99092.25;;;15.04;100.00
43153;BME280;28756;49.064;9.290;2022-10-16T08:01:08;99094.03;;;15.03;100.00
43153;BME280;28756;49.064;9.290;2022-10-16T08:03:34;99091.78;;;15.10;100.00
43153;BME280;28756;49.064;9.290;2022-10-16T08:06:01;99094.41;;;15.10;100.00
43153;BME280;28756;49.064;9.290;2022-10-16T08:08:27;99093.94;;;15.16;100.00
43153;BME280;28756;49.064;9.290;2022-10-16T08:10:53;99101.25;;;15.24;100.00
43153;BME280;28756;49.064;9.290;2022-10-16T08:13:19;99103.22;;;15.33;100.00
43153;BME280;28756;49.064;9.290;2022-10-16T08:15:46;99103.97;;;15.46;100.00
43153;BME280;28756;49.064;9.290;2022-10-16T08:18:13;99104.69;;;15.60;100.00
43153;BME280;28756;49.064;9.290;2022-10-16T08:20:41;99104.25;;;15.77;100.00
43153;BME280;28756;49.064;9.290;2022-10-16T08:23:09;99099.56;;;15.94;100.00
43153;BME280;28756;49.064;9.290;2022-10-16T08:25:36;99090.84;;;16.05;100.00
43153;BME280;28756;49.064;9.290;2022-10-16T08:28:08;99100.28;;;16.19;100.00
43153;BME280;28756;49.064;9.290;2022-10-16T08:30:35;99093.97;;;16.33;100.00
43153;BME280;28756;49.064;9.290;2022-10-16T08:33:01;99097.50;;;16.43;100.00
43153;BME280;28756;49.064;9.290;2022-10-16T08:35:27;99098.59;;;16.52;100.00
43153;BME280;28756;49.064;9.290;2022-10-16T08:37:53;99092.00;;;16.57;100.00
43153;BME280;28756;49.064;9.290;2022-10-16T08:40:30;99103.72;;;16.65;100.00
43153;BME280;28756;49.064;9.290;2022-10-16T08:43:20;99099.50;;;16.73;100.00
43153;BME280;28756;49.064;9.290;2022-10-16T08:48:51;99105.34;;;16.88;100.00
43153;BME280;28756;49.064;9.290;2022-10-16T08:51:29;99118.34;;;16.90;100.00
43153;BME280;28756;49.064;9.290;2022-10-16T08:54:04;99107.81;;;17.01;100.00
43153;BME280;28756;49.064;9.290;2022-10-16T08:56:30;99113.66;;;17.05;100.00
43153;BME280;28756;49.064;9.290;2022-10-16T08:58:58;99114.72;;;17.14;100.00
43153;BME280;28756;49.064;9.290;2022-10-16T09:01:38;99104.78;;;17.17;100.00
43153;BME280;28756;49.064;9.290;2022-10-16T09:04:54;99098.88;;;17.25;100.00
43153;BME280;28756;49.064;9.290;2022-10-16T09:07:52;99101.47;;;17.36;100.00
43153;BME280;28756;49.064;9.290;2022-10-16T09:13:58;99114.03;;;17.33;100.00
43153;BME280;28756;49.064;9.290;2022-10-16T09:16:40;99114.38;;;17.40;100.00
43153;BME280;28756;49.064;9.290;2022-10-16T09:19:32;99113.38;;;17.41;100.00
43153;BME280;28756;49.064;9.290;2022-10-16T09:22:02;99110.56;;;17.32;100.00
43153;BME280;28756;49.064;9.290;2022-10-16T09:24:35;99119.50;;;17.41;100.00
43153;BME280;28756;49.064;9.290;2022-10-16T09:27:00;99129.34;;;17.49;100.00
43153;BME280;28756;49.064;9.290;2022-10-16T09:29:26;99134.38;;;17.52;100.00
43153;BME280;28756;49.064;9.290;2022-10-16T09:31:53;99140.78;;;17.59;100.00
43153;BME280;28756;49.064;9.290;2022-10-16T09:34:35;99143.16;;;17.62;100.00
43153;BME280;28756;49.064;9.290;2022-10-16T09:37:08;99150.53;;;17.68;100.00
43153;BME280;28756;49.064;9.290;2022-10-16T09:39:49;99156.25;;;17.74;100.00
43153;BME280;28756;49.064;9.290;2022-10-16T09:42:22;99146.56;;;17.74;100.00
43153;BME280;28756;49.064;9.290;2022-10-16T09:44:52;99153.81;;;17.82;100.00
43153;BME280;28756;49.064;9.290;2022-10-16T09:47:22;99152.16;;;18.02;100.00
43153;BME280;28756;49.064;9.290;2022-10-16T09:49:57;99160.59;;;18.27;100.00
43153;BME280;28756;49.064;9.290;2022-10-16T09:52:25;99148.97;;;19.50;100.00
43153;BME280;28756;49.064;9.290;2022-10-16T09:57:20;99131.97;;;21.32;100.00
43153;BME280;28756;49.064;9.290;2022-10-16T09:59:54;99124.72;;;21.96;100.00
43153;BME280;28756;49.064;9.290;2022-10-16T10:02:35;99130.78;;;21.62;100.00
43153;BME280;28756;49.064;9.290;2022-10-16T10:05:05;99132.34;;;21.55;100.00
43153;BME280;28756;49.064;9.290;2022-10-16T10:07:44;99130.19;;;22.03;100.00
43153;BME280;28756;49.064;9.290;2022-10-16T10:10:28;99133.19;;;22.00;100.00
43153;BME280;28756;49.064;9.290;2022-10-16T10:12:55;99123.41;;;22.00;100.00
43153;BME280;28756;49.064;9.290;2022-10-16T10:15:23;99134.75;;;22.45;100.00
43153;BME280;28756;49.064;9.290;2022-10-16T10:17:57;99129.75;;;22.77;100.00
43153;BME280;28756;49.064;9.290;2022-10-16T10:20:35;99130.78;;;23.17;100.00
43153;BME280;28756;49.064;9.290;2022-10-16T10:23:22;99142.88;;;21.91;100.00
43153;BME280;28756;49.064;9.290;2022-10-16T10:26:06;99138.81;;;23.42;100.00
43153;BME280;28756;49.064;9.290;2022-10-16T10:29:17;99133.84;;;23.55;100.00
43153;BME280;28756;49.064;9.290;2022-10-16T10:35:13;99151.25;;;21.60;100.00
43153;BME280;28756;49.064;9.290;2022-10-16T10:38:06;99154.66;;;21.52;100.00
43153;BME280;28756;49.064;9.290;2022-10-16T10:46:03;99154.66;;;20.32;100.00
43153;BME280;28756;49.064;9.290;2022-10-16T10:54:54;99165.25;;;20.23;100.00
43153;BME280;28756;49.064;9.290;2022-10-16T10:57:52;99158.13;;;19.95;100.00
43153;BME280;28756;49.064;9.290;2022-10-16T11:06:18;99149.97;;;20.16;100.00
43153;BME280;28756;49.064;9.290;2022-10-16T11:18:43;99149.81;;;20.28;100.00
43153;BME280;28756;49.064;9.290;2022-10-16T11:21:14;99154.06;;;20.39;100.00
43153;BME280;28756;49.064;9.290;2022-10-16T11:24:15;99150.59;;;20.76;100.00
43153;BME280;28756;49.064;9.290;2022-10-16T11:26:46;99150.50;;;21.50;100.00
43153;BME280;28756;49.064;9.290;2022-10-16T11:29:27;99149.03;;;22.52;100.00
43153;BME280;28756;49.064;9.290;2022-10-16T11:32:11;99136.84;;;22.76;100.00
43153;BME280;28756;49.064;9.290;2022-10-16T11:34:50;99126.81;;;23.05;100.00
43153;BME280;28756;49.064;9.290;2022-10-16T11:37:30;99127.69;;;22.62;100.00
43153;BME280;28756;49.064;9.290;2022-10-16T11:40:33;99119.34;;;22.40;100.00
43153;BME280;28756;49.064;9.290;2022-10-16T11:45:46;99121.56;;;21.92;100.00
43153;BME280;28756;49.064;9.290;2022-10-16T11:48:40;99132.03;;;21.76;100.00
43153;BME280;28756;49.064;9.290;2022-10-16T11:51:17;99139.44;;;21.36;100.00
43153;BME280;28756;49.064;9.290;2022-10-16T11:54:16;99145.88;;;21.34;100.00
43153;BME280;28756;49.064;9.290;2022-10-16T11:56:50;99148.53;;;21.16;100.00
43153;BME280;28756;49.064;9.290;2022-10-16T11:59:42;99148.53;;;20.97;100.00
43153;BME280;28756;49.064;9.290;2022-10-16T12:05:54;99144.31;;;21.23;100.00
43153;BME280;28756;49.064;9.290;2022-10-16T12:08:21;99149.50;;;21.33;100.00
43153;BME280;28756;49.064;9.290;2022-10-16T12:10:48;99149.13;;;21.45;100.00
43153;BME280;28756;49.064;9.290;2022-10-16T12:18:42;99148.13;;;22.09;100.00
43153;BME280;28756;49.064;9.290;2022-10-16T12:21:09;99142.94;;;22.34;100.00
43153;BME280;28756;49.064;9.290;2022-10-16T12:26:12;99142.88;;;22.44;100.00
43153;BME280;28756;49.064;9.290;2022-10-16T12:28:38;99135.75;;;22.44;100.00
43153;BME280;28756;49.064;9.290;2022-10-16T12:31:07;99139.06;;;21.85;100.00
43153;BME280;28756;49.064;9.290;2022-10-16T12:33:36;99138.09;;;21.95;100.00
43153;BME280;28756;49.064;9.290;2022-10-16T12:36:14;99136.06;;;22.15;100.00
43153;BME280;28756;49.064;9.290;2022-10-16T12:38:52;99135.66;;;22.01;100.00
43153;BME280;28756;49.064;9.290;2022-10-16T12:41:35;99129.53;;;21.74;100.00
43153;BME280;28756;49.064;9.290;2022-10-16T12:44:05;99132.66;;;21.34;100.00
43153;BME280;28756;49.064;9.290;2022-10-16T12:46:46;99135.19;;;21.80;100.00
43153;BME280;28756;49.064;9.290;2022-10-16T12:51:38;99130.72;;;22.33;100.00
43153;BME280;28756;49.064;9.290;2022-10-16T12:54:13;99127.69;;;22.28;100.00
43153;BME280;28756;49.064;9.290;2022-10-16T13:09:05;99127.22;;;21.17;100.00
43153;BME280;28756;49.064;9.290;2022-10-16T13:12:10;99137.50;;;21.20;100.00
43153;BME280;28756;49.064;9.290;2022-10-16T13:15:30;99151.41;;;21.40;100.00
43153;BME280;28756;49.064;9.290;2022-10-16T13:18:28;99143.16;;;21.43;100.00
43153;BME280;28756;49.064;9.290;2022-10-16T13:24:20;99155.56;;;21.07;100.00
43153;BME280;28756;49.064;9.290;2022-10-16T13:27:03;99163.88;;;21.12;100.00
43153;BME280;28756;49.064;9.290;2022-10-16T13:29:32;99159.47;;;21.03;100.00
43153;BME280;28756;49.064;9.290;2022-10-16T13:32:01;99167.69;;;20.99;100.00
43153;BME280;28756;49.064;9.290;2022-10-16T13:34:32;99171.38;;;20.89;100.00
43153;BME280;28756;49.064;9.290;2022-10-16T13:36:58;99157.78;;;20.83;100.00
43153;BME280;28756;49.064;9.290;2022-10-16T13:39:29;99151.84;;;20.72;100.00
43153;BME280;28756;49.064;9.290;2022-10-16T13:42:13;99160.19;;;20.67;100.00
43153;BME280;28756;49.064;9.290;2022-10-16T13:44:44;99156.66;;;20.58;100.00
43153;BME280;28756;49.064;9.290;2022-10-16T13:47:23;99169.44;;;20.53;100.00
43153;BME280;28756;49.064;9.290;2022-10-16T13:50:05;99171.00;;;20.46;100.00
43153;BME280;28756;49.064;9.290;2022-10-16T13:52:32;99161.56;;;20.43;100.00
43153;BME280;28756;49.064;9.290;2022-10-16T13:54:58;99165.47;;;20.39;100.00
43153;BME280;28756;49.064;9.290;2022-10-16T13:57:24;99168.41;;;20.36;100.00
43153;BME280;28756;49.064;9.290;2022-10-16T13:59:51;99162.59;;;20.32;100.00
43153;BME280;28756;49.064;9.290;2022-10-16T14:02:33;99166.03;;;20.33;100.00
43153;BME280;28756;49.064;9.290;2022-10-16T14:05:04;99159.78;;;20.34;100.00
43153;BME280;28756;49.064;9.290;2022-10-16T14:07:34;99152.03;;;20.32;100.00
43153;BME280;28756;49.064;9.290;2022-10-16T14:10:06;99154.66;;;20.32;100.00
43153;BME280;28756;49.064;9.290;2022-10-16T14:12:43;99154.91;;;20.39;100.00
43153;BME280;28756;49.064;9.290;2022-10-16T14:15:17;99166.25;;;20.49;100.00
43153;BME280;28756;49.064;9.290;2022-10-16T14:17:48;99157.34;;;20.50;100.00
43153;BME280;28756;49.064;9.290;2022-10-16T14:20:16;99152.66;;;20.44;100.00
43153;BME280;28756;49.064;9.290;2022-10-16T14:22:42;99159.78;;;20.44;100.00
43153;BME280;28756;49.064;9.290;2022-10-16T14:30:31;99168.06;;;20.11;100.00
43153;BME280;28756;49.064;9.290;2022-10-16T14:36:03;99158.22;;;20.03;100.00
43153;BME280;28756;49.064;9.290;2022-10-16T14:38:30;99162.28;;;19.98;100.00
43153;BME280;28756;49.064;9.290;2022-10-16T14:40:58;99166.03;;;19.95;100.00
43153;BME280;28756;49.064;9.290;2022-10-16T14:43:34;99162.56;;;19.85;100.00